createdAt,value
2023-01-30T00:01:08.057Z,3.25
2023-01-30T00:03:35.839Z,3.30
2023-01-30T00:06:03.265Z,3.30
2023-01-30T00:08:30.669Z,3.28
2023-01-30T00:10:57.656Z,3.30
2023-01-30T00:13:25.263Z,3.28
2023-01-30T00:15:52.657Z,3.30
2023-01-30T00:18:20.060Z,3.25
2023-01-30T00:20:47.471Z,3.30
2023-01-30T00:23:14.888Z,3.25
2023-01-30T00:25:46.455Z,3.30
2023-01-30T00:28:13.941Z,3.30
2023-01-30T00:30:42.234Z,3.28
2023-01-30T00:33:10.462Z,3.28
2023-01-30T00:35:37.875Z,3.22
2023-01-30T00:38:05.333Z,3.25
2023-01-30T00:40:32.735Z,3.28
2023-01-30T00:43:18.780Z,3.33
2023-01-30T00:46:06.315Z,3.30
2023-01-30T00:48:33.869Z,3.30
2023-01-30T00:51:00.877Z,3.30
2023-01-30T00:53:28.671Z,3.30
2023-01-30T00:55:56.510Z,3.30
2023-01-30T00:58:24.729Z,3.30
2023-01-30T01:00:52.741Z,3.28
2023-01-30T01:03:20.652Z,3.28
2023-01-30T01:05:48.550Z,3.25
2023-01-30T01:08:16.251Z,3.28
2023-01-30T01:10:44.035Z,3.25
2023-01-30T01:13:11.555Z,3.20
2023-01-30T01:15:39.119Z,3.20
2023-01-30T01:18:06.756Z,3.17
2023-01-30T01:20:34.405Z,3.20
2023-01-30T01:23:03.580Z,3.20
2023-01-30T01:25:31.106Z,3.17
2023-01-30T01:27:58.505Z,3.17
2023-01-30T01:30:25.960Z,3.20
2023-01-30T01:32:53.452Z,3.17
2023-01-30T01:35:20.864Z,3.20
2023-01-30T01:37:48.377Z,3.20
2023-01-30T01:40:40.875Z,3.20
2023-01-30T01:43:26.309Z,3.13
2023-01-30T01:46:04.300Z,3.20
2023-01-30T01:48:39.020Z,3.20
2023-01-30T01:51:25.111Z,3.13
2023-01-30T01:54:05.828Z,3.17
2023-01-30T01:56:36.085Z,3.15
2023-01-30T01:59:22.083Z,3.10
2023-01-30T02:01:51.029Z,3.20
2023-01-30T02:04:38.444Z,3.10
2023-01-30T02:07:06.080Z,3.10
2023-01-30T02:09:33.240Z,3.13
2023-01-30T02:12:04.571Z,3.17
2023-01-30T02:14:34.703Z,3.10
2023-01-30T02:17:01.690Z,3.17
2023-01-30T02:20:31.640Z,3.13
2023-01-30T02:23:44.672Z,3.15
2023-01-30T02:26:58.985Z,3.10
2023-01-30T02:30:02.209Z,3.08
2023-01-30T02:33:03.922Z,3.13
2023-01-30T02:35:44.816Z,3.13
2023-01-30T02:38:38.625Z,3.13
2023-01-30T02:41:35.296Z,3.15
2023-01-30T02:44:29.333Z,3.10
2023-01-30T02:47:07.851Z,3.10
2023-01-30T02:50:39.982Z,3.07
2023-01-30T02:53:07.970Z,3.10
2023-01-30T02:55:36.320Z,3.13
2023-01-30T02:58:05.277Z,3.07
2023-01-30T03:00:54.686Z,3.07
2023-01-30T03:03:53.743Z,3.07
2023-01-30T03:06:51.236Z,3.13
2023-01-30T03:09:51.413Z,3.07
2023-01-30T03:12:38.563Z,3.10
2023-01-30T03:15:30.890Z,3.10
2023-01-30T03:17:59.484Z,3.05
2023-01-30T03:20:26.973Z,3.00
2023-01-30T03:22:55.408Z,3.08
2023-01-30T03:25:26.769Z,3.07
2023-01-30T03:27:56.012Z,3.00
2023-01-30T03:30:26.689Z,3.07
2023-01-30T03:33:02.139Z,3.03
2023-01-30T03:35:30.379Z,3.07
2023-01-30T03:37:58.970Z,3.00
2023-01-30T03:40:26.583Z,3.03
2023-01-30T03:42:54.893Z,3.10
2023-01-30T03:45:22.042Z,3.00
2023-01-30T03:47:49.450Z,3.07
2023-01-30T03:50:17.921Z,3.00
2023-01-30T03:52:46.563Z,3.00
2023-01-30T03:55:18.832Z,3.00
2023-01-30T03:57:46.582Z,3.03
2023-01-30T04:00:15.461Z,3.00
2023-01-30T04:02:48.889Z,3.03
2023-01-30T04:05:19.187Z,2.90
2023-01-30T04:07:52.245Z,3.00
2023-01-30T04:10:20.048Z,3.00
2023-01-30T04:12:47.946Z,3.00
2023-01-30T04:15:17.187Z,3.00
2023-01-30T04:17:53.227Z,3.00
2023-01-30T04:20:40.326Z,3.00
2023-01-30T04:23:07.941Z,3.00
2023-01-30T04:25:35.842Z,3.00
2023-01-30T04:28:07.969Z,2.97
2023-01-30T04:30:38.114Z,3.00
2023-01-30T04:33:31.056Z,3.00
2023-01-30T04:36:00.241Z,2.93
2023-01-30T04:38:29.965Z,2.97
2023-01-30T04:40:59.151Z,2.93
2023-01-30T04:43:30.567Z,2.90
2023-01-30T04:46:23.839Z,2.97
2023-01-30T04:48:51.446Z,3.00
2023-01-30T04:51:18.975Z,2.93
2023-01-30T04:53:48.649Z,2.90
2023-01-30T04:56:16.187Z,2.90
2023-01-30T04:58:44.273Z,2.90
2023-01-30T05:01:25.727Z,2.93
2023-01-30T05:03:54.397Z,2.90
2023-01-30T05:06:22.630Z,3.00
2023-01-30T05:08:51.713Z,2.90
2023-01-30T05:11:21.189Z,2.93
2023-01-30T05:13:49.594Z,2.93
2023-01-30T05:16:18.013Z,2.90
2023-01-30T05:18:45.846Z,2.97
2023-01-30T05:21:22.617Z,2.97
2023-01-30T05:23:51.513Z,3.00
2023-01-30T05:26:18.974Z,3.00
2023-01-30T05:28:55.650Z,2.93
2023-01-30T05:31:23.928Z,2.93
2023-01-30T05:33:52.365Z,2.90
2023-01-30T05:36:22.190Z,3.00
2023-01-30T05:38:49.793Z,3.00
2023-01-30T05:41:18.222Z,3.00
2023-01-30T05:43:50.511Z,3.00
2023-01-30T05:46:18.294Z,3.03
2023-01-30T05:48:46.056Z,3.00
2023-01-30T05:51:23.606Z,3.00
2023-01-30T05:53:51.730Z,3.03
2023-01-30T05:56:19.887Z,3.00
2023-01-30T05:58:55.858Z,3.00
2023-01-30T06:01:24.349Z,3.03
2023-01-30T06:03:52.827Z,3.10
2023-01-30T06:06:32.932Z,3.07
2023-01-30T06:09:00.363Z,3.00
2023-01-30T06:11:27.874Z,3.00
2023-01-30T06:13:55.094Z,3.00
2023-01-30T06:16:22.573Z,3.00
2023-01-30T06:18:49.687Z,3.03
2023-01-30T06:21:17.572Z,3.00
2023-01-30T06:23:46.228Z,3.00
2023-01-30T06:26:13.375Z,3.00
2023-01-30T06:28:40.999Z,3.00
2023-01-30T06:31:08.931Z,3.00
2023-01-30T06:33:36.770Z,3.00
2023-01-30T06:36:04.520Z,3.00
2023-01-30T06:38:32.013Z,3.00
2023-01-30T06:40:59.427Z,3.00
2023-01-30T06:43:27.226Z,3.00
2023-01-30T06:45:54.650Z,3.00
2023-01-30T06:48:22.076Z,3.00
2023-01-30T06:50:49.478Z,3.00
2023-01-30T06:53:16.915Z,2.97
2023-01-30T06:55:44.274Z,3.00
2023-01-30T06:58:13.808Z,3.00
2023-01-30T07:00:42.571Z,2.97
2023-01-30T07:03:17.335Z,2.90
2023-01-30T07:05:47.082Z,2.90
2023-01-30T07:08:16.164Z,2.90
2023-01-30T07:10:45.481Z,2.90
2023-01-30T07:13:13.381Z,2.90
2023-01-30T07:15:40.821Z,2.93
2023-01-30T07:18:08.377Z,2.90
2023-01-30T07:20:35.817Z,2.90
2023-01-30T07:23:03.145Z,2.90
2023-01-30T07:25:30.808Z,2.90
2023-01-30T07:28:01.385Z,2.90
2023-01-30T07:30:32.040Z,2.90
2023-01-30T07:33:04.936Z,2.87
2023-01-30T07:35:38.677Z,2.90
2023-01-30T07:38:06.331Z,2.90
2023-01-30T07:40:34.618Z,2.90
2023-01-30T07:43:10.066Z,2.80
2023-01-30T07:45:49.586Z,2.90
2023-01-30T07:48:19.608Z,2.90
2023-01-30T07:50:48.975Z,2.87
2023-01-30T07:53:18.701Z,2.90
2023-01-30T07:55:46.231Z,2.90
2023-01-30T07:58:15.780Z,2.80
2023-01-30T08:00:44.006Z,2.87
2023-01-30T08:03:16.932Z,2.80
2023-01-30T08:05:47.031Z,2.80
2023-01-30T08:08:14.729Z,2.80
2023-01-30T08:10:42.474Z,2.80
2023-01-30T08:13:09.938Z,2.80
2023-01-30T08:15:36.898Z,2.80
2023-01-30T08:18:04.026Z,2.70
2023-01-30T08:20:31.042Z,2.80
2023-01-30T08:22:59.968Z,2.80
2023-01-30T08:25:27.030Z,2.70
2023-01-30T08:27:54.736Z,2.73
2023-01-30T08:30:22.849Z,2.80
2023-01-30T08:32:50.317Z,2.80
2023-01-30T08:35:17.892Z,2.73
2023-01-30T08:37:44.912Z,2.80
2023-01-30T08:40:13.104Z,2.77
2023-01-30T08:42:40.926Z,2.80
2023-01-30T08:45:08.608Z,2.80
2023-01-30T08:47:35.771Z,2.80
2023-01-30T08:50:04.871Z,2.80
2023-01-30T08:52:35.471Z,2.80
2023-01-30T08:55:02.972Z,2.90
2023-01-30T08:57:32.391Z,2.80
2023-01-30T08:59:59.476Z,2.87
2023-01-30T09:03:47.363Z,2.80
2023-01-30T09:06:14.337Z,2.80
2023-01-30T09:08:44.451Z,2.77
2023-01-30T09:11:12.688Z,2.80
2023-01-30T09:13:48.632Z,2.73
2023-01-30T09:16:15.935Z,2.70
2023-01-30T09:18:44.798Z,2.83
2023-01-30T09:21:14.006Z,2.73
2023-01-30T09:23:41.515Z,2.73
2023-01-30T09:26:11.695Z,2.80
2023-01-30T09:28:38.784Z,2.73
2023-01-30T09:31:06.012Z,2.80
2023-01-30T09:33:33.119Z,2.70
2023-01-30T09:36:00.350Z,2.77
2023-01-30T09:38:27.369Z,2.77
2023-01-30T09:41:00.659Z,2.73
2023-01-30T09:43:42.910Z,2.70
2023-01-30T09:46:34.559Z,2.77
2023-01-30T09:49:32.275Z,2.80
2023-01-30T09:52:38.564Z,2.80
2023-01-30T09:55:33.162Z,2.80
2023-01-30T09:58:01.305Z,2.80
2023-01-30T10:00:35.515Z,2.80
2023-01-30T10:03:16.387Z,2.80
2023-01-30T10:05:55.808Z,2.80
2023-01-30T10:09:13.539Z,2.80
2023-01-30T10:12:34.583Z,2.80
2023-01-30T10:15:42.737Z,2.80
2023-01-30T10:18:35.539Z,2.77
2023-01-30T10:21:47.601Z,2.73
2023-01-30T10:24:45.557Z,2.83
2023-01-30T10:27:17.755Z,2.80
2023-01-30T10:29:57.087Z,2.80
2023-01-30T10:32:39.087Z,2.77
2023-01-30T10:35:24.541Z,2.77
2023-01-30T10:38:28.148Z,2.80
2023-01-30T10:41:19.193Z,2.77
2023-01-30T10:44:13.043Z,2.80
2023-01-30T10:47:47.352Z,2.80
2023-01-30T10:50:50.614Z,2.77
2023-01-30T10:54:13.480Z,2.80
2023-01-30T10:57:13.448Z,2.80
2023-01-30T11:00:04.046Z,2.80
2023-01-30T11:03:38.376Z,2.80
2023-01-30T11:06:26.636Z,2.80
2023-01-30T11:08:56.015Z,2.80
2023-01-30T11:11:49.647Z,2.80
2023-01-30T11:14:17.359Z,2.77
2023-01-30T11:16:54.365Z,2.77
2023-01-30T11:19:42.270Z,2.77
2023-01-30T11:22:15.291Z,2.80
2023-01-30T11:24:45.389Z,2.77
2023-01-30T11:27:31.875Z,2.80
2023-01-30T11:30:17.193Z,2.73
2023-01-30T11:32:49.228Z,2.77
2023-01-30T11:35:23.168Z,2.77
2023-01-30T11:37:53.382Z,2.70
2023-01-30T11:40:23.852Z,2.80
2023-01-30T11:43:11.824Z,2.77
2023-01-30T11:45:47.666Z,2.77
2023-01-30T11:48:33.260Z,2.77
2023-01-30T11:51:16.647Z,2.73
2023-01-30T11:54:00.465Z,2.70
2023-01-30T11:56:52.620Z,2.80
2023-01-30T11:59:36.887Z,2.70
2023-01-30T12:02:20.688Z,2.70
2023-01-30T12:04:53.861Z,2.70
2023-01-30T12:07:32.309Z,2.70
2023-01-30T12:10:00.390Z,2.70
2023-01-30T12:12:37.628Z,2.70
2023-01-30T12:15:13.272Z,2.70
2023-01-30T12:18:20.905Z,2.70
2023-01-30T12:21:02.996Z,2.70
2023-01-30T12:24:05.821Z,2.70
2023-01-30T12:27:03.192Z,2.70
2023-01-30T12:29:59.508Z,2.70
2023-01-30T12:32:33.465Z,2.70
2023-01-30T12:35:14.258Z,2.70
2023-01-30T12:38:27.510Z,2.70
2023-01-30T12:42:07.225Z,2.80
2023-01-30T12:44:56.306Z,2.70
2023-01-30T12:48:06.959Z,2.70
2023-01-30T12:50:56.129Z,2.77
2023-01-30T12:53:53.247Z,2.70
2023-01-30T12:57:06.786Z,2.70
2023-01-30T13:00:28.789Z,2.70
2023-01-30T13:03:36.383Z,2.70
2023-01-30T13:06:44.683Z,2.73
2023-01-30T13:09:42.445Z,2.70
2023-01-30T13:12:51.222Z,2.70
2023-01-30T13:15:21.476Z,2.70
2023-01-30T13:18:19.146Z,2.70
2023-01-30T13:21:05.050Z,2.70
2023-01-30T13:24:19.641Z,2.70
2023-01-30T13:26:50.414Z,2.70
2023-01-30T13:29:35.388Z,2.80
2023-01-30T13:32:13.777Z,2.70
2023-01-30T13:34:47.912Z,2.73
2023-01-30T13:37:20.780Z,2.70
2023-01-30T13:40:13.783Z,2.73
2023-01-30T13:43:07.149Z,2.80
2023-01-30T13:45:41.894Z,2.77
2023-01-30T13:48:27.564Z,2.77
2023-01-30T13:51:40.855Z,2.80
2023-01-30T13:54:52.688Z,2.70
2023-01-30T13:57:55.168Z,2.73
2023-01-30T14:00:35.718Z,2.80
2023-01-30T14:03:08.686Z,2.80
2023-01-30T14:05:54.433Z,2.80
2023-01-30T14:09:01.252Z,2.70
2023-01-30T14:11:57.099Z,2.70
2023-01-30T14:14:40.535Z,2.70
2023-01-30T14:17:16.686Z,2.77
2023-01-30T14:20:12.425Z,2.77
2023-01-30T14:23:00.899Z,2.80
2023-01-30T14:25:32.658Z,2.73
2023-01-30T14:28:05.505Z,2.90
2023-01-30T14:30:36.121Z,2.80
2023-01-30T14:33:24.754Z,2.70
2023-01-30T14:35:58.150Z,2.80
2023-01-30T14:38:38.397Z,2.80
2023-01-30T14:41:06.626Z,2.77
2023-01-30T14:43:42.699Z,2.80
2023-01-30T14:46:41.406Z,2.70
2023-01-30T14:49:29.303Z,2.77
2023-01-30T14:51:56.952Z,2.73
2023-01-30T14:54:41.281Z,2.70
2023-01-30T14:57:24.671Z,2.70
2023-01-30T15:00:14.829Z,2.77
2023-01-30T15:02:52.821Z,2.80
2023-01-30T15:05:39.288Z,2.73
2023-01-30T15:08:21.152Z,2.80
2023-01-30T15:11:29.702Z,2.80
2023-01-30T15:14:28.694Z,2.77
2023-01-30T15:17:13.718Z,2.70
2023-01-30T15:20:08.466Z,2.73
2023-01-30T15:23:44.598Z,2.80
2023-01-30T15:26:48.405Z,2.80
2023-01-30T15:30:05.869Z,2.80
2023-01-30T15:32:34.231Z,2.70
2023-01-30T15:35:28.167Z,2.80
2023-01-30T15:37:58.834Z,2.77
2023-01-30T15:40:29.662Z,2.73
2023-01-30T15:43:20.941Z,2.73
2023-01-30T15:46:26.000Z,2.80
2023-01-30T15:49:33.347Z,2.77
2023-01-30T15:52:04.708Z,2.80
2023-01-30T15:54:32.000Z,2.70
2023-01-30T15:57:00.895Z,2.70
2023-01-30T15:59:39.982Z,2.80
2023-01-30T16:02:32.795Z,2.70
2023-01-30T16:05:27.057Z,2.77
2023-01-30T16:07:57.804Z,2.70
2023-01-30T16:10:30.851Z,2.77
2023-01-30T16:13:03.623Z,2.70
2023-01-30T16:15:54.313Z,2.80
2023-01-30T16:18:21.607Z,2.70
2023-01-30T16:21:01.955Z,2.80
2023-01-30T16:23:40.292Z,2.70
2023-01-30T16:26:21.641Z,2.80
2023-01-30T16:28:51.296Z,2.70
2023-01-30T16:31:19.276Z,2.70
2023-01-30T16:33:53.147Z,2.70
2023-01-30T16:36:20.127Z,2.70
2023-01-30T16:38:55.011Z,2.77
2023-01-30T16:41:45.022Z,2.70
2023-01-30T16:44:26.440Z,2.80
2023-01-30T16:47:22.532Z,2.70
2023-01-30T16:49:50.264Z,2.80
2023-01-30T16:52:44.779Z,2.80
2023-01-30T16:55:24.568Z,2.70
2023-01-30T16:58:03.682Z,2.80
2023-01-30T17:00:40.379Z,2.77
2023-01-30T17:03:31.377Z,2.77
2023-01-30T17:06:04.885Z,2.70
2023-01-30T17:08:42.636Z,2.80
2023-01-30T17:11:10.037Z,2.70
2023-01-30T17:13:42.250Z,2.80
2023-01-30T17:16:33.663Z,2.70
2023-01-30T17:19:01.226Z,2.77
2023-01-30T17:21:37.279Z,2.80
2023-01-30T17:24:06.757Z,2.83
2023-01-30T17:26:34.356Z,2.80
2023-01-30T17:29:01.385Z,2.80
2023-01-30T17:31:28.459Z,2.80
2023-01-30T17:33:55.612Z,2.80
2023-01-30T17:36:31.225Z,2.80
2023-01-30T17:39:00.205Z,2.73
2023-01-30T17:41:32.377Z,2.80
2023-01-30T17:43:59.433Z,2.80
2023-01-30T17:46:48.755Z,2.80
2023-01-30T17:49:23.788Z,2.80
2023-01-30T17:51:52.770Z,2.70
2023-01-30T17:54:20.496Z,2.80
2023-01-30T17:56:54.491Z,2.80
2023-01-30T17:59:22.422Z,2.80
2023-01-30T18:01:52.106Z,2.77
2023-01-30T18:04:20.965Z,2.80
2023-01-30T18:06:54.143Z,2.73
2023-01-30T18:09:24.536Z,2.77
2023-01-30T18:11:51.837Z,2.70
2023-01-30T18:14:19.039Z,2.80
2023-01-30T18:16:47.470Z,2.80
2023-01-30T18:19:18.715Z,2.77
2023-01-30T18:21:45.802Z,2.77
2023-01-30T18:24:14.247Z,2.70
2023-01-30T18:26:42.023Z,2.80
2023-01-30T18:29:10.288Z,2.80
2023-01-30T18:31:40.288Z,2.80
2023-01-30T18:34:07.826Z,2.80
2023-01-30T18:36:36.761Z,2.77
2023-01-30T18:39:05.771Z,2.77
2023-01-30T18:41:35.085Z,2.80
2023-01-30T18:44:06.404Z,2.73
2023-01-30T18:46:34.140Z,2.80
2023-01-30T18:49:01.604Z,2.77
2023-01-30T18:51:33.915Z,2.80
2023-01-30T18:54:02.102Z,2.80
2023-01-30T18:56:35.045Z,2.80
2023-01-30T18:59:05.524Z,2.80
2023-01-30T19:01:39.695Z,2.80
2023-01-30T19:04:10.749Z,2.73
2023-01-30T19:06:42.833Z,2.80
2023-01-30T19:09:18.925Z,2.77
2023-01-30T19:12:05.180Z,2.80
2023-01-30T19:14:32.295Z,2.80
2023-01-30T19:16:59.306Z,2.80
2023-01-30T19:19:27.208Z,2.80
2023-01-30T19:21:54.310Z,2.80
2023-01-30T19:24:21.413Z,2.73
2023-01-30T19:26:48.695Z,2.80
2023-01-30T19:29:18.088Z,2.80
2023-01-30T19:31:47.115Z,2.80
2023-01-30T19:34:14.876Z,2.80
2023-01-30T19:36:43.111Z,2.77
2023-01-30T19:39:10.496Z,2.73
2023-01-30T19:41:38.339Z,2.80
2023-01-30T19:44:08.518Z,2.77
2023-01-30T19:46:36.407Z,2.80
2023-01-30T19:49:05.644Z,2.80
2023-01-30T19:51:35.087Z,2.80
2023-01-30T19:54:07.426Z,2.80
2023-01-30T19:56:36.425Z,2.70
2023-01-30T19:59:04.085Z,2.80
2023-01-30T20:01:36.869Z,2.80
2023-01-30T20:04:05.148Z,2.80
2023-01-30T20:06:37.461Z,2.80
2023-01-30T20:09:11.069Z,2.73
2023-01-30T20:11:40.765Z,2.80
2023-01-30T20:14:10.109Z,2.73
2023-01-30T20:16:37.598Z,2.80
2023-01-30T20:19:12.942Z,2.70
2023-01-30T20:21:40.257Z,2.80
2023-01-30T20:24:08.216Z,2.77
2023-01-30T20:26:39.488Z,2.80
2023-01-30T20:29:09.429Z,2.70
2023-01-30T20:31:41.522Z,2.73
2023-01-30T20:34:13.634Z,2.80
2023-01-30T20:36:41.209Z,2.77
2023-01-30T20:39:08.745Z,2.80
2023-01-30T20:41:37.550Z,2.80
2023-01-30T20:44:13.066Z,2.80
2023-01-30T20:46:50.207Z,2.77
2023-01-30T20:49:21.619Z,2.73
2023-01-30T20:51:52.269Z,2.77
2023-01-30T20:54:23.375Z,2.80
2023-01-30T20:56:53.669Z,2.80
2023-01-30T20:59:24.670Z,2.80
2023-01-30T21:01:53.000Z,2.80
2023-01-30T21:04:22.657Z,2.77
2023-01-30T21:06:50.423Z,2.80
2023-01-30T21:09:23.248Z,2.80
2023-01-30T21:11:52.914Z,2.90
2023-01-30T21:14:19.999Z,2.80
2023-01-30T21:16:47.521Z,2.80
2023-01-30T21:19:17.460Z,2.80
2023-01-30T21:21:53.921Z,2.80
2023-01-30T21:24:27.165Z,2.80
2023-01-30T21:26:56.470Z,2.80
2023-01-30T21:29:27.651Z,2.80
2023-01-30T21:31:57.481Z,2.80
2023-01-30T21:34:24.950Z,2.80
2023-01-30T21:37:14.783Z,2.80
2023-01-30T21:40:00.599Z,2.87
2023-01-30T21:42:46.842Z,2.80
2023-01-30T21:45:13.929Z,2.80
2023-01-30T21:47:41.272Z,2.80
2023-01-30T21:50:09.596Z,2.77
2023-01-30T21:52:36.928Z,2.70
2023-01-30T21:55:04.353Z,2.80
2023-01-30T21:57:31.283Z,2.70
2023-01-30T21:59:58.256Z,2.80
2023-01-30T22:02:25.253Z,2.80
2023-01-30T22:04:52.701Z,2.80
2023-01-30T22:07:19.800Z,2.80
2023-01-30T22:09:48.658Z,2.80
2023-01-30T22:12:16.172Z,2.80
2023-01-30T22:14:43.170Z,2.80
2023-01-30T22:17:10.185Z,2.70
2023-01-30T22:19:38.721Z,2.70
2023-01-30T22:22:05.745Z,2.80
2023-01-30T22:24:32.763Z,2.80
2023-01-30T22:26:59.745Z,2.80
2023-01-30T22:29:28.909Z,2.77
2023-01-30T22:31:56.043Z,2.80
2023-01-30T22:34:23.150Z,2.80
2023-01-30T22:36:50.742Z,2.80
2023-01-30T22:39:17.847Z,2.80
2023-01-30T22:41:45.253Z,2.80
2023-01-30T22:44:12.209Z,2.80
2023-01-30T22:46:41.218Z,2.73
2023-01-30T22:49:09.858Z,2.77
2023-01-30T22:51:41.003Z,2.77
2023-01-30T22:54:15.760Z,2.70
2023-01-30T22:56:47.618Z,2.70
2023-01-30T22:59:15.099Z,2.80
2023-01-30T23:01:50.551Z,2.70
2023-01-30T23:04:21.932Z,2.73
2023-01-30T23:06:51.697Z,2.80
2023-01-30T23:09:23.097Z,2.73
2023-01-30T23:12:16.013Z,2.80
2023-01-30T23:14:43.530Z,2.80
2023-01-30T23:17:29.888Z,2.80
2023-01-30T23:19:57.476Z,2.70
2023-01-30T23:22:24.491Z,2.80
2023-01-30T23:24:52.034Z,2.73
2023-01-30T23:27:20.163Z,2.80
2023-01-30T23:29:47.760Z,2.77
2023-01-30T23:32:18.765Z,2.80
2023-01-30T23:34:47.351Z,2.80
2023-01-30T23:37:15.603Z,2.80
2023-01-30T23:39:43.037Z,2.73
2023-01-30T23:42:10.422Z,2.80
2023-01-30T23:44:37.620Z,2.73
2023-01-30T23:47:05.018Z,2.80
2023-01-30T23:49:32.041Z,2.80
2023-01-30T23:51:59.454Z,2.80
2023-01-30T23:54:26.598Z,2.73
2023-01-30T23:56:55.209Z,2.77
2023-01-30T23:59:22.174Z,2.73
